Time;durP1;ratioP1;P1;durP2;ratioP2;P2;SDS_P1;SDS_P2;PMS_P1;PMS_P2;Temp;Humidity;BMP_temperature;BMP_pressure;BME280_temperature;BME280_humidity;BME280_pressure;Samples;Min_cycle;Max_cycle;Signal;HPM_P1;HPM_P2
2023/08/06 00:00:16;;;;;;;4.00;3.43;;;15.90;99.90;;;;;;5084916;28;20273;-67
2023/08/06 00:02:42;;;;;;;3.63;3.03;;;15.90;99.90;;;;;;5084162;28;20191;-67
2023/08/06 00:05:08;;;;;;;3.53;3.23;;;15.80;99.90;;;;;;5084476;28;20180;-67
2023/08/06 00:07:33;;;;;;;3.70;3.27;;;15.90;99.90;;;;;;5084913;28;20267;-68
2023/08/06 00:09:59;;;;;;;5.97;3.93;;;15.90;99.90;;;;;;5084292;28;20187;-68
2023/08/06 00:12:25;;;;;;;3.90;3.50;;;15.90;99.90;;;;;;5070029;28;20922;-68
2023/08/06 00:14:52;;;;;;;3.90;3.50;;;15.90;99.90;;;;;;5063995;28;20533;-68
2023/08/06 00:17:18;;;;;;;3.93;3.60;;;15.90;99.90;;;;;;5065895;28;20206;-68
2023/08/06 00:19:44;;;;;;;4.83;3.40;;;15.80;99.90;;;;;;5064220;28;20463;-68
2023/08/06 00:22:09;;;;;;;5.00;3.97;;;15.80;99.90;;;;;;5064791;28;20952;-68
2023/08/06 00:24:35;;;;;;;3.93;3.53;;;15.80;99.90;;;;;;5064025;28;20564;-68
2023/08/06 00:27:02;;;;;;;7.13;3.93;;;15.90;99.90;;;;;;5064504;28;20184;-68
2023/08/06 00:29:27;;;;;;;3.50;3.20;;;15.90;99.90;;;;;;5071959;28;20418;-68
2023/08/06 00:31:53;;;;;;;3.40;3.10;;;15.90;99.90;;;;;;5084417;28;20417;-68
2023/08/06 00:34:19;;;;;;;3.83;3.40;;;15.90;99.90;;;;;;5084322;28;20180;-67
2023/08/06 00:36:44;;;;;;;3.60;3.30;;;15.80;99.90;;;;;;5083806;28;20192;-67
2023/08/06 00:39:10;;;;;;;4.23;3.70;;;15.80;99.90;;;;;;5084717;28;20212;-68
2023/08/06 00:41:36;;;;;;;3.97;3.67;;;15.70;99.90;;;;;;5083832;28;20219;-68
2023/08/06 00:44:02;;;;;;;3.93;3.53;;;15.80;99.90;;;;;;5084622;28;20506;-68
2023/08/06 00:46:28;;;;;;;5.30;3.60;;;15.70;99.90;;;;;;5083624;28;20505;-68
2023/08/06 00:48:55;;;;;;;4.07;3.67;;;15.80;99.90;;;;;;5083950;28;20521;-68
2023/08/06 00:51:21;;;;;;;3.47;3.10;;;15.80;99.90;;;;;;5084198;28;20484;-68
2023/08/06 00:53:49;;;;;;;4.80;3.80;;;15.70;99.90;;;;;;5083473;28;20446;-68
2023/08/06 00:56:15;;;;;;;4.87;3.40;;;15.80;99.90;;;;;;5084292;28;20421;-68
2023/08/06 00:58:41;;;;;;;3.97;3.57;;;15.80;99.90;;;;;;5083788;28;20454;-68
2023/08/06 01:01:07;;;;;;;3.67;3.37;;;15.70;99.90;;;;;;5084099;28;20411;-68
2023/08/06 01:03:33;;;;;;;4.40;3.87;;;15.80;99.90;;;;;;5083747;28;20418;-67
2023/08/06 01:06:00;;;;;;;6.10;3.83;;;15.70;99.90;;;;;;5083708;28;20195;-67
2023/08/06 01:08:40;;;;;;;3.73;3.43;;;15.70;99.90;;;;;;5084151;28;20221;-68
2023/08/06 01:11:54;;;;;;;5.80;3.50;;;15.70;99.90;;;;;;5084012;28;20410;-68
2023/08/06 01:15:01;;;;;;;4.10;3.70;;;15.70;99.90;;;;;;5066061;28;20449;-68
2023/08/06 01:17:29;;;;;;;6.10;3.97;;;15.70;99.90;;;;;;5083734;28;20423;-67
2023/08/06 01:19:55;;;;;;;4.10;3.70;;;15.70;99.90;;;;;;5083649;28;20458;-68
2023/08/06 01:22:20;;;;;;;3.60;3.17;;;15.70;99.90;;;;;;5083775;28;20463;-68
2023/08/06 01:24:49;;;;;;;3.73;3.40;;;15.70;99.90;;;;;;5083145;28;20177;-68
2023/08/06 01:27:20;;;;;;;3.70;3.40;;;15.70;99.90;;;;;;5083804;28;20540;-68
2023/08/06 01:29:53;;;;;;;6.13;3.90;;;15.70;99.90;;;;;;5072938;28;20450;-67
2023/08/06 01:32:21;;;;;;;4.23;3.83;;;15.70;99.90;;;;;;5068360;28;20442;-68
2023/08/06 01:34:48;;;;;;;5.73;3.90;;;15.70;99.90;;;;;;5080214;28;20486;-67
2023/08/06 01:37:14;;;;;;;4.33;3.47;;;15.70;99.90;;;;;;5074691;28;20418;-68
2023/08/06 01:39:42;;;;;;;4.20;3.80;;;15.70;99.90;;;;;;5083039;28;20466;-67
2023/08/06 01:42:08;;;;;;;4.17;3.77;;;15.70;99.90;;;;;;5083798;28;20180;-68
2023/08/06 01:44:34;;;;;;;4.80;4.23;;;15.70;99.90;;;;;;5083039;28;20475;-67
2023/08/06 01:47:00;;;;;;;4.50;3.63;;;15.70;99.90;;;;;;5084216;28;20427;-68
2023/08/06 01:49:25;;;;;;;3.77;3.47;;;15.60;99.90;;;;;;5065290;28;20176;-67
2023/08/06 01:51:51;;;;;;;5.07;3.70;;;15.60;99.90;;;;;;5083896;28;20180;-67
2023/08/06 01:54:16;;;;;;;4.17;3.73;;;15.70;99.90;;;;;;5083214;28;20176;-67
2023/08/06 01:56:42;;;;;;;4.40;4.00;;;15.70;99.90;;;;;;5082535;28;20180;-67
2023/08/06 01:59:08;;;;;;;4.80;3.70;;;15.70;99.90;;;;;;5083450;28;20201;-68
2023/08/06 02:01:33;;;;;;;4.50;3.93;;;15.60;99.90;;;;;;5082964;28;20268;-67
2023/08/06 02:03:59;;;;;;;4.00;3.60;;;15.60;99.90;;;;;;5083272;28;20177;-68
2023/08/06 02:06:25;;;;;;;3.93;3.63;;;15.70;99.90;;;;;;5083214;28;20646;-68
2023/08/06 02:08:50;;;;;;;4.00;3.60;;;15.60;99.90;;;;;;5082987;28;20180;-68
2023/08/06 02:11:16;;;;;;;4.20;3.80;;;15.60;99.90;;;;;;5083375;28;20172;-68
2023/08/06 02:13:42;;;;;;;4.07;3.67;;;15.70;99.90;;;;;;5082591;28;20192;-68
2023/08/06 02:16:10;;;;;;;5.73;3.73;;;15.70;99.90;;;;;;5083536;28;20176;-68
2023/08/06 02:18:36;;;;;;;4.87;4.00;;;15.70;99.90;;;;;;5064538;28;20197;-67
2023/08/06 02:21:01;;;;;;;4.13;3.73;;;15.70;99.90;;;;;;5083660;28;20423;-67
2023/08/06 02:23:28;;;;;;;4.10;3.70;;;15.70;99.90;;;;;;5083215;28;20179;-67
2023/08/06 02:26:02;;;;;;;4.37;3.63;;;15.70;99.90;;;;;;5082999;28;20544;-68
2023/08/06 02:28:28;;;;;;;4.20;3.30;;;15.70;99.90;;;;;;5082800;28;20434;-68
2023/08/06 02:30:54;;;;;;;4.40;4.00;;;15.70;99.90;;;;;;5063532;28;20468;-68
2023/08/06 02:33:20;;;;;;;5.37;4.07;;;15.70;99.90;;;;;;5062952;28;20454;-68
2023/08/06 02:35:46;;;;;;;3.53;3.23;;;15.70;99.90;;;;;;5062281;28;20244;-68
2023/08/06 02:38:11;;;;;;;4.27;3.87;;;15.70;99.90;;;;;;5062879;28;21081;-68
2023/08/06 02:40:46;;;;;;;5.30;4.37;;;15.70;99.90;;;;;;5062288;28;20181;-68
2023/08/06 02:43:12;;;;;;;5.40;3.63;;;15.70;99.90;;;;;;5063081;28;20740;-68
2023/08/06 02:45:38;;;;;;;4.63;3.90;;;15.70;99.90;;;;;;5062045;28;20419;-68
2023/08/06 02:48:04;;;;;;;5.10;3.83;;;15.70;99.90;;;;;;5062539;28;20439;-68
2023/08/06 02:50:29;;;;;;;3.80;3.40;;;15.70;99.90;;;;;;5062085;28;20297;-68
2023/08/06 02:52:55;;;;;;;3.90;3.60;;;15.70;99.90;;;;;;5062591;28;20482;-68
2023/08/06 02:55:21;;;;;;;4.20;3.73;;;15.70;99.90;;;;;;5062294;28;20455;-68
2023/08/06 02:57:46;;;;;;;4.67;4.03;;;15.70;99.90;;;;;;5061894;28;20530;-68
2023/08/06 03:00:12;;;;;;;4.63;3.77;;;15.70;99.90;;;;;;5062359;28;20262;-68
2023/08/06 03:02:38;;;;;;;6.83;3.60;;;15.60;99.90;;;;;;5061979;28;20177;-68
2023/08/06 03:05:06;;;;;;;6.77;3.87;;;15.60;99.90;;;;;;5062563;28;20197;-68
2023/08/06 03:07:33;;;;;;;3.57;3.27;;;15.50;99.90;;;;;;5061766;28;20173;-68
2023/08/06 03:10:01;;;;;;;4.70;3.50;;;15.60;99.90;;;;;;5065534;28;20436;-68
2023/08/06 03:12:27;;;;;;;4.17;3.80;;;15.60;99.90;;;;;;5065453;28;20435;-68
2023/08/06 03:14:52;;;;;;;4.80;3.40;;;15.50;99.90;;;;;;5065641;28;20427;-68
2023/08/06 03:17:18;;;;;;;4.30;3.90;;;15.50;99.90;;;;;;5066166;28;20950;-68
2023/08/06 03:19:44;;;;;;;3.47;3.17;;;15.50;99.90;;;;;;5066294;28;20205;-69
2023/08/06 03:22:09;;;;;;;4.77;4.20;;;15.50;99.90;;;;;;5066882;28;20181;-68
2023/08/06 03:24:35;;;;;;;4.03;3.63;;;15.50;99.90;;;;;;5066068;28;20740;-68
2023/08/06 03:27:01;;;;;;;4.87;3.83;;;15.50;99.90;;;;;;5066055;28;20314;-68
2023/08/06 03:29:27;;;;;;;3.53;3.23;;;15.60;99.90;;;;;;5072448;28;20644;-68
2023/08/06 03:31:53;;;;;;;5.33;3.73;;;15.60;99.90;;;;;;5085728;28;20468;-68
2023/08/06 03:34:18;;;;;;;5.43;3.80;;;15.60;99.90;;;;;;5085654;28;20168;-68
2023/08/06 03:36:44;;;;;;;4.37;3.43;;;15.60;99.90;;;;;;5082626;28;20183;-68
2023/08/06 03:39:10;;;;;;;4.90;4.23;;;15.60;99.90;;;;;;5075397;28;20205;-68
2023/08/06 03:41:35;;;;;;;4.10;3.70;;;15.60;99.90;;;;;;5084637;28;20176;-68
2023/08/06 03:44:03;;;;;;;3.70;3.40;;;15.60;99.90;;;;;;5085530;28;21136;-68
2023/08/06 03:46:32;;;;;;;5.70;3.40;;;15.60;99.90;;;;;;5085031;28;20212;-68
2023/08/06 03:48:57;;;;;;;5.63;3.90;;;15.60;99.90;;;;;;5085563;28;20489;-67
2023/08/06 03:51:23;;;;;;;6.63;3.57;;;15.60;99.90;;;;;;5085075;28;20521;-67
2023/08/06 03:53:49;;;;;;;3.97;3.67;;;15.60;99.90;;;;;;5085053;28;20180;-67
2023/08/06 03:56:14;;;;;;;3.83;3.30;;;15.60;99.90;;;;;;5085270;28;20208;-67
2023/08/06 03:58:40;;;;;;;4.20;3.43;;;15.50;99.90;;;;;;5084441;28;20474;-68
2023/08/06 04:01:06;;;;;;;4.63;3.87;;;15.50;99.90;;;;;;5085516;28;20173;-67
2023/08/06 04:03:31;;;;;;;4.07;3.20;;;15.60;99.90;;;;;;5084678;28;20181;-67
2023/08/06 04:05:57;;;;;;;5.50;3.70;;;15.60;99.90;;;;;;5084955;28;20790;-68
2023/08/06 04:08:23;;;;;;;4.70;4.20;;;15.50;99.90;;;;;;5084696;28;20650;-67
2023/08/06 04:10:52;;;;;;;4.10;3.37;;;15.60;99.90;;;;;;5084885;28;20183;-68
2023/08/06 04:13:18;;;;;;;3.30;3.00;;;15.60;99.90;;;;;;5085077;28;20185;-68
2023/08/06 04:15:44;;;;;;;7.70;3.80;;;15.50;99.90;;;;;;5084461;28;20413;-68
2023/08/06 04:18:10;;;;;;;3.20;2.90;;;15.50;99.90;;;;;;5085089;28;20426;-67
2023/08/06 04:20:46;;;;;;;6.03;3.20;;;15.50;99.90;;;;;;5082987;28;20200;-68
2023/08/06 04:23:12;;;;;;;4.10;3.53;;;15.50;99.90;;;;;;5080753;28;20195;-68
2023/08/06 04:25:38;;;;;;;3.50;3.20;;;15.50;99.90;;;;;;5080177;28;20425;-67
2023/08/06 04:28:04;;;;;;;3.67;2.60;;;15.50;99.90;;;;;;5076118;28;20414;-68
2023/08/06 04:30:29;;;;;;;4.30;2.83;;;15.50;99.90;;;;;;5067906;28;20360;-67
2023/08/06 04:32:57;;;;;;;3.57;3.27;;;15.50;99.90;;;;;;5064715;28;20569;-68
2023/08/06 04:35:23;;;;;;;3.40;3.07;;;15.50;99.90;;;;;;5063572;28;20174;-68
2023/08/06 04:37:49;;;;;;;3.93;2.90;;;15.50;99.90;;;;;;5064445;28;20418;-67
2023/08/06 04:40:14;;;;;;;4.20;3.00;;;15.50;99.90;;;;;;5064306;28;20209;-68
2023/08/06 04:42:40;;;;;;;4.80;3.43;;;15.50;99.90;;;;;;5045812;28;20177;-68
2023/08/06 04:45:06;;;;;;;4.63;3.37;;;15.50;99.90;;;;;;5064027;28;20741;-67
2023/08/06 04:47:32;;;;;;;3.53;3.23;;;15.50;99.90;;;;;;5063463;28;20276;-68
2023/08/06 04:49:58;;;;;;;4.17;2.97;;;15.60;99.90;;;;;;5064157;28;20411;-68
2023/08/06 04:52:27;;;;;;;3.93;3.30;;;15.50;99.90;;;;;;5064305;28;20192;-68
2023/08/06 04:54:53;;;;;;;3.30;2.93;;;15.50;99.90;;;;;;5065573;28;20195;-67
2023/08/06 04:57:18;;;;;;;3.57;3.00;;;15.50;99.90;;;;;;5064719;28;20423;-69
2023/08/06 04:59:44;;;;;;;4.93;2.90;;;15.50;99.90;;;;;;5064478;28;20216;-68
2023/08/06 05:02:10;;;;;;;3.83;3.40;;;15.60;99.90;;;;;;5064076;28;20169;-68
2023/08/06 05:04:35;;;;;;;6.07;2.70;;;15.60;99.90;;;;;;5062956;28;20235;-68
2023/08/06 05:07:01;;;;;;;5.07;3.30;;;15.60;99.90;;;;;;5063823;28;20264;-67
2023/08/06 05:09:26;;;;;;;3.60;3.00;;;15.50;99.90;;;;;;5062996;28;20691;-67
2023/08/06 05:11:52;;;;;;;4.43;3.03;;;15.60;99.90;;;;;;5063788;28;20235;-68
2023/08/06 05:14:18;;;;;;;3.33;2.67;;;15.50;99.90;;;;;;5063463;28;20173;-67
2023/08/06 05:16:43;;;;;;;3.90;2.93;;;15.50;99.90;;;;;;5063487;28;20193;-68
2023/08/06 05:19:09;;;;;;;4.07;2.77;;;15.60;99.90;;;;;;5063784;28;20705;-68
2023/08/06 05:21:35;;;;;;;5.20;3.30;;;15.60;99.90;;;;;;5062875;28;20193;-67
2023/08/06 05:24:00;;;;;;;3.03;2.73;;;15.60;99.90;;;;;;5063479;28;20166;-68
2023/08/06 05:26:26;;;;;;;3.20;2.60;;;15.60;99.90;;;;;;5062842;28;20177;-68
2023/08/06 05:28:52;;;;;;;4.43;2.80;;;15.60;99.90;;;;;;5065898;28;20184;-68
2023/08/06 05:31:17;;;;;;;3.10;2.80;;;15.60;99.90;;;;;;5083011;28;20173;-68
2023/08/06 05:33:44;;;;;;;3.00;2.70;;;15.70;99.90;;;;;;5083622;28;20244;-68
2023/08/06 05:36:10;;;;;;;6.17;3.87;;;15.70;99.90;;;;;;5065622;28;20176;-68
2023/08/06 05:38:35;;;;;;;3.60;3.00;;;15.70;99.90;;;;;;5083066;28;20410;-68
2023/08/06 05:41:01;;;;;;;3.23;2.93;;;15.80;99.90;;;;;;5083383;28;20894;-68
2023/08/06 05:43:27;;;;;;;4.20;3.07;;;15.90;99.90;;;;;;5072358;28;20192;-67
2023/08/06 05:45:52;;;;;;;5.30;3.37;;;15.90;99.90;;;;;;5068468;28;20183;-68
2023/08/06 05:48:18;;;;;;;3.27;2.80;;;15.90;99.90;;;;;;5064997;28;20258;-67
2023/08/06 05:50:44;;;;;;;3.40;3.07;;;16.00;99.90;;;;;;5067660;28;20188;-68
2023/08/06 05:53:09;;;;;;;8.43;3.17;;;16.10;99.90;;;;;;5081372;28;20183;-68
2023/08/06 05:55:35;;;;;;;3.83;3.10;;;16.10;99.90;;;;;;5073836;28;20272;-68
2023/08/06 05:58:01;;;;;;;4.20;3.20;;;16.10;99.90;;;;;;5083706;28;20188;-67
2023/08/06 06:00:26;;;;;;;2.83;2.63;;;16.10;99.90;;;;;;5082412;28;20758;-67
2023/08/06 06:02:52;;;;;;;3.80;2.50;;;16.10;99.90;;;;;;5083276;28;20229;-68
2023/08/06 06:05:18;;;;;;;4.87;2.90;;;16.00;99.90;;;;;;5072022;28;20203;-68
2023/08/06 06:07:43;;;;;;;4.10;3.50;;;16.00;99.90;;;;;;5062738;28;20173;-68
2023/08/06 06:10:09;;;;;;;4.13;3.07;;;16.10;99.90;;;;;;5063115;28;20181;-67
2023/08/06 06:12:35;;;;;;;3.03;2.73;;;16.10;99.90;;;;;;5062407;28;20180;-67
2023/08/06 06:15:01;;;;;;;4.30;3.30;;;16.20;99.90;;;;;;5063154;28;21251;-68
2023/08/06 06:17:27;;;;;;;3.73;3.00;;;16.10;99.90;;;;;;5062544;28;20187;-68
2023/08/06 06:19:53;;;;;;;2.93;2.50;;;16.20;99.90;;;;;;5045201;28;20474;-68
2023/08/06 06:22:19;;;;;;;4.40;2.90;;;16.20;99.90;;;;;;5062196;28;20411;-68
2023/08/06 06:24:44;;;;;;;2.80;2.53;;;16.20;99.90;;;;;;5062655;28;20173;-68
2023/08/06 06:27:10;;;;;;;2.97;2.60;;;16.30;99.90;;;;;;5064077;28;20181;-67
2023/08/06 06:29:36;;;;;;;4.57;3.23;;;16.20;99.90;;;;;;5071659;28;20765;-68
2023/08/06 06:32:01;;;;;;;4.00;3.10;;;16.30;99.90;;;;;;5084254;28;20263;-67
2023/08/06 06:34:27;;;;;;;2.80;2.60;;;16.30;99.90;;;;;;5082290;28;20604;-67
2023/08/06 06:36:52;;;;;;;3.53;3.23;;;16.30;99.90;;;;;;5082955;28;20191;-68
2023/08/06 06:39:18;;;;;;;3.00;2.70;;;16.30;99.90;;;;;;5082753;28;21031;-68
2023/08/06 06:41:44;;;;;;;3.60;3.30;;;16.40;99.90;;;;;;5081280;28;20956;-68
2023/08/06 06:44:10;;;;;;;4.60;2.57;;;16.40;99.90;;;;;;5077718;28;20292;-68
2023/08/06 06:46:36;;;;;;;3.40;2.80;;;16.50;99.90;;;;;;5078799;28;20184;-67
2023/08/06 06:49:01;;;;;;;4.30;2.37;;;16.60;99.90;;;;;;5062279;28;20963;-68
2023/08/06 06:51:27;;;;;;;3.13;2.40;;;16.60;99.90;;;;;;5067979;28;20216;-68
2023/08/06 06:53:53;;;;;;;3.23;2.83;;;16.60;99.90;;;;;;5068349;28;20185;-68
2023/08/06 06:56:18;;;;;;;4.83;2.70;;;16.60;99.90;;;;;;5085225;28;20287;-68
2023/08/06 06:58:44;;;;;;;2.70;2.50;;;16.70;99.90;;;;;;5086661;28;20200;-68
2023/08/06 07:01:11;;;;;;;2.87;2.60;;;16.60;99.90;;;;;;5086679;28;20172;-67
2023/08/06 07:03:37;;;;;;;3.37;2.67;;;16.60;99.90;;;;;;5086104;28;20214;-67
2023/08/06 07:06:03;;;;;;;5.40;3.20;;;16.70;99.90;;;;;;5086191;28;20450;-68
2023/08/06 07:08:29;;;;;;;3.70;2.47;;;16.70;99.90;;;;;;5072268;28;20461;-68
2023/08/06 07:11:03;;;;;;;3.60;2.83;;;16.70;99.90;;;;;;5076831;28;20505;-68
2023/08/06 07:13:29;;;;;;;3.73;2.40;;;16.80;99.90;;;;;;5072258;28;20443;-69
2023/08/06 07:15:55;;;;;;;2.40;2.20;;;16.80;99.90;;;;;;5078365;28;20513;-69
2023/08/06 07:18:21;;;;;;;2.73;1.90;;;16.90;99.90;;;;;;5085724;28;20513;-69
2023/08/06 07:20:55;;;;;;;3.37;2.30;;;16.90;99.90;;;;;;5086127;28;20499;-69
2023/08/06 07:23:22;;;;;;;3.20;2.23;;;16.80;99.90;;;;;;5085371;28;20422;-69
2023/08/06 07:25:48;;;;;;;3.30;2.10;;;16.90;99.90;;;;;;5081164;28;20924;-69
2023/08/06 07:28:15;;;;;;;2.33;2.10;;;16.90;99.90;;;;;;5074028;28;20430;-70
2023/08/06 07:30:45;;;;;;;3.33;2.47;;;16.90;99.90;;;;;;5084160;28;20783;-70
2023/08/06 07:33:11;;;;;;;2.60;2.40;;;16.90;99.90;;;;;;5085625;28;20419;-69
2023/08/06 07:35:38;;;;;;;3.10;2.20;;;16.90;99.90;;;;;;5084859;28;21190;-70
2023/08/06 07:38:03;;;;;;;3.03;2.07;;;17.00;99.90;;;;;;5083994;28;20487;-69
2023/08/06 07:40:29;;;;;;;2.83;2.20;;;17.10;99.90;;;;;;5078078;28;20474;-70
2023/08/06 07:42:55;;;;;;;3.17;2.20;;;17.10;99.90;;;;;;5085885;28;20180;-69
2023/08/06 07:45:21;;;;;;;3.53;2.23;;;17.10;99.90;;;;;;5076238;28;20793;-70
2023/08/06 07:47:47;;;;;;;4.60;2.03;;;17.30;99.90;;;;;;5078274;28;20466;-70
2023/08/06 07:50:13;;;;;;;2.93;2.57;;;17.20;99.90;;;;;;5064315;28;20252;-69
2023/08/06 07:52:39;;;;;;;2.50;2.10;;;17.20;99.90;;;;;;5060124;28;20873;-69
2023/08/06 07:55:05;;;;;;;4.23;2.30;;;17.30;99.90;;;;;;5084201;28;21047;-69
2023/08/06 07:57:32;;;;;;;6.13;3.00;;;17.20;99.90;;;;;;5081012;28;20442;-69
2023/08/06 07:59:57;;;;;;;3.73;2.47;;;17.20;99.90;;;;;;5082546;28;20255;-69
2023/08/06 08:02:23;;;;;;;3.57;2.57;;;17.30;99.90;;;;;;5083207;28;20459;-69
2023/08/06 08:04:49;;;;;;;2.40;2.20;;;17.20;99.90;;;;;;5075775;28;20228;-69
2023/08/06 08:07:14;;;;;;;3.67;2.30;;;17.20;99.90;;;;;;5082897;28;20784;-69
2023/08/06 08:09:40;;;;;;;3.53;3.00;;;17.30;99.90;;;;;;5080921;28;20629;-69
2023/08/06 08:12:06;;;;;;;2.47;2.27;;;17.30;99.90;;;;;;5083854;28;20211;-69
2023/08/06 08:14:37;;;;;;;2.93;2.40;;;17.30;99.90;;;;;;5072272;28;20609;-70
2023/08/06 08:17:05;;;;;;;3.00;2.70;;;17.30;99.90;;;;;;5077268;28;21126;-69
2023/08/06 08:19:31;;;;;;;4.30;3.47;;;17.30;99.90;;;;;;5081116;28;21151;-69
2023/08/06 08:21:57;;;;;;;3.43;3.13;;;17.40;99.90;;;;;;5078404;28;20458;-69
2023/08/06 08:24:23;;;;;;;3.87;2.83;;;17.40;99.90;;;;;;5074469;28;20519;-68
2023/08/06 08:26:53;;;;;;;3.50;3.20;;;17.50;99.90;;;;;;5071320;28;20217;-68
2023/08/06 08:29:19;;;;;;;3.60;3.27;;;17.60;99.90;;;;;;5059911;28;20462;-69
2023/08/06 08:31:45;;;;;;;3.27;2.97;;;17.60;99.90;;;;;;5078232;28;20454;-68
2023/08/06 08:34:11;;;;;;;3.13;2.80;;;17.70;99.90;;;;;;5072671;28;20795;-68
2023/08/06 08:36:37;;;;;;;3.87;2.77;;;17.70;99.90;;;;;;5075459;28;20782;-68
2023/08/06 08:39:04;;;;;;;3.20;2.70;;;17.80;99.90;;;;;;5082199;28;20508;-69
2023/08/06 08:41:31;;;;;;;3.00;2.50;;;17.80;99.90;;;;;;5074849;28;20216;-69
2023/08/06 08:43:59;;;;;;;2.77;2.30;;;17.90;99.90;;;;;;5076842;28;21030;-69
2023/08/06 08:46:27;;;;;;;3.53;3.13;;;17.90;99.90;;;;;;5075064;28;20458;-68
2023/08/06 08:48:54;;;;;;;4.53;3.20;;;18.00;99.90;;;;;;5061395;28;20467;-69
2023/08/06 08:51:20;;;;;;;6.20;2.73;;;18.00;99.90;;;;;;5074585;28;20500;-69
2023/08/06 08:53:49;;;;;;;3.63;3.30;;;18.10;99.90;;;;;;5083062;28;20804;-69
2023/08/06 08:56:15;;;;;;;2.67;2.30;;;18.10;99.90;;;;;;5076237;28;20508;-68
2023/08/06 08:58:41;;;;;;;2.93;2.60;;;18.20;99.90;;;;;;5079972;28;20538;-69
2023/08/06 09:01:08;;;;;;;3.50;2.67;;;18.30;99.90;;;;;;5073463;28;20446;-69
2023/08/06 09:03:36;;;;;;;5.73;2.63;;;18.50;99.90;;;;;;5074635;28;20231;-69
2023/08/06 09:06:02;;;;;;;4.73;2.70;;;18.50;99.90;;;;;;5064267;28;20886;-68
2023/08/06 09:08:41;;;;;;;5.53;2.50;;;18.70;99.90;;;;;;5075895;28;21019;-69
2023/08/06 09:11:12;;;;;;;2.70;2.50;;;18.60;99.90;;;;;;5071308;28;20519;-69
2023/08/06 09:13:38;;;;;;;2.67;2.23;;;18.60;99.90;;;;;;5072918;28;20527;-69
2023/08/06 09:16:05;;;;;;;3.27;2.97;;;18.60;99.90;;;;;;5076392;28;21234;-68
2023/08/06 09:18:31;;;;;;;2.70;2.50;;;18.60;99.90;;;;;;5066236;28;20446;-68
2023/08/06 09:20:57;;;;;;;5.40;2.70;;;18.40;99.90;;;;;;5076053;28;21342;-69
2023/08/06 09:23:30;;;;;;;6.00;3.80;;;18.30;99.90;;;;;;5067865;28;20447;-68
2023/08/06 09:25:57;;;;;;;5.20;3.53;;;18.30;99.90;;;;;;5075330;28;20462;-69
2023/08/06 09:28:24;;;;;;;4.20;3.87;;;18.30;99.90;;;;;;5069456;28;20447;-68
2023/08/06 09:30:50;;;;;;;4.90;3.70;;;18.20;99.90;;;;;;5074260;28;20961;-68
2023/08/06 09:33:19;;;;;;;4.20;3.43;;;18.30;99.90;;;;;;5077926;28;20446;-69
2023/08/06 09:35:46;;;;;;;4.60;4.20;;;18.30;99.90;;;;;;5077733;28;20451;-69
2023/08/06 09:38:13;;;;;;;5.13;3.70;;;18.30;99.90;;;;;;5076754;28;20451;-69
2023/08/06 09:40:40;;;;;;;4.17;3.77;;;18.40;99.90;;;;;;5070892;28;20482;-68
2023/08/06 09:43:06;;;;;;;4.10;3.70;;;18.50;99.90;;;;;;5069922;28;20485;-69
2023/08/06 09:45:36;;;;;;;4.70;3.67;;;18.60;99.90;;;;;;5068355;28;20419;-69
2023/08/06 09:48:06;;;;;;;5.50;3.90;;;18.60;99.90;;;;;;5077489;28;20451;-68
2023/08/06 09:50:36;;;;;;;4.17;3.70;;;18.60;99.90;;;;;;5075762;28;20489;-69
2023/08/06 09:53:04;;;;;;;5.60;3.90;;;18.70;99.90;;;;;;5075952;28;20438;-68
2023/08/06 09:55:30;;;;;;;7.10;5.47;;;18.60;99.90;;;;;;5073392;28;20443;-68
2023/08/06 09:57:56;;;;;;;4.90;4.50;;;18.60;99.90;;;;;;5077584;28;21194;-68
2023/08/06 10:00:23;;;;;;;4.30;3.97;;;18.60;99.90;;;;;;5075070;28;20222;-68
2023/08/06 10:02:51;;;;;;;5.90;4.40;;;18.60;99.90;;;;;;5052909;28;20424;-69
2023/08/06 10:05:18;;;;;;;5.63;5.07;;;18.60;99.90;;;;;;5073563;28;20850;-69
2023/08/06 10:07:44;;;;;;;5.53;5.03;;;18.60;99.90;;;;;;5061615;28;20443;-69
2023/08/06 10:10:10;;;;;;;7.20;5.13;;;18.60;99.90;;;;;;5070235;28;20821;-69
2023/08/06 10:12:40;;;;;;;6.17;5.10;;;18.50;99.90;;;;;;5074273;28;20476;-69
2023/08/06 10:15:10;;;;;;;6.30;5.70;;;18.50;99.90;;;;;;5079637;28;20183;-68
2023/08/06 10:17:37;;;;;;;20.10;6.40;;;18.40;99.90;;;;;;5055598;28;20536;-69
2023/08/06 10:20:06;;;;;;;5.70;5.20;;;18.30;99.90;;;;;;5080880;28;20480;-68
2023/08/06 10:22:33;;;;;;;5.90;5.40;;;18.20;99.90;;;;;;5086689;28;21215;-68
2023/08/06 10:25:06;;;;;;;6.13;5.63;;;18.20;99.90;;;;;;5067825;28;20476;-68
2023/08/06 10:27:35;;;;;;;5.80;5.00;;;18.20;99.90;;;;;;5081527;28;20431;-68
2023/08/06 10:30:26;;;;;;;7.20;5.90;;;18.30;99.90;;;;;;5074659;28;20430;-68
2023/08/06 10:32:57;;;;;;;6.80;6.17;;;18.20;99.90;;;;;;5086864;28;20441;-68
2023/08/06 10:35:38;;;;;;;6.30;5.77;;;18.20;99.90;;;;;;5085580;28;20478;-68
2023/08/06 10:38:10;;;;;;;7.23;5.83;;;18.20;99.90;;;;;;5086494;28;20521;-68
2023/08/06 10:40:54;;;;;;;5.80;5.30;;;18.30;99.90;;;;;;5086311;28;20474;-68
2023/08/06 10:43:34;;;;;;;7.13;6.43;;;18.40;99.90;;;;;;5085423;28;20437;-68
2023/08/06 10:46:08;;;;;;;7.47;6.57;;;18.30;99.90;;;;;;5067811;28;20990;-69
2023/08/06 10:48:40;;;;;;;7.03;6.33;;;18.40;99.90;;;;;;5071899;28;20458;-69
2023/08/06 10:51:11;;;;;;;6.77;5.80;;;18.40;99.90;;;;;;5085176;28;20418;-68
2023/08/06 10:53:37;;;;;;;6.93;6.33;;;18.40;99.90;;;;;;5074011;28;20427;-68
2023/08/06 10:56:15;;;;;;;7.30;6.53;;;18.50;99.90;;;;;;5082716;28;20430;-68
2023/08/06 10:58:42;;;;;;;7.10;6.40;;;18.40;99.90;;;;;;5086314;28;20423;-67
2023/08/06 11:01:08;;;;;;;6.90;6.30;;;18.40;99.90;;;;;;5085688;28;20441;-68
2023/08/06 11:03:34;;;;;;;6.23;5.70;;;18.50;99.90;;;;;;5086282;28;20426;-69
2023/08/06 11:06:00;;;;;;;6.80;6.20;;;18.50;99.90;;;;;;5086135;28;20452;-68
2023/08/06 11:08:34;;;;;;;7.50;6.80;;;18.60;99.90;;;;;;5065635;28;20411;-68
2023/08/06 11:11:10;;;;;;;7.33;6.73;;;18.70;99.90;;;;;;5086243;28;20413;-68
2023/08/06 11:13:38;;;;;;;7.47;6.50;;;18.80;99.90;;;;;;5086594;28;20414;-68
2023/08/06 11:16:05;;;;;;;6.27;5.77;;;18.80;99.90;;;;;;5085202;28;20516;-68
2023/08/06 11:18:32;;;;;;;6.50;5.90;;;18.80;99.90;;;;;;5085862;28;20469;-68
2023/08/06 11:21:02;;;;;;;6.63;6.10;;;18.80;99.90;;;;;;5085913;28;20573;-68
2023/08/06 11:23:29;;;;;;;5.83;5.33;;;18.80;99.90;;;;;;5074458;28;20920;-68
2023/08/06 11:25:57;;;;;;;5.60;5.17;;;18.80;99.90;;;;;;5078583;28;21146;-68
2023/08/06 11:28:24;;;;;;;6.37;5.87;;;18.80;99.90;;;;;;5078845;28;20418;-68
2023/08/06 11:30:50;;;;;;;10.43;6.20;;;18.70;99.90;;;;;;5082239;28;20446;-67
2023/08/06 11:33:26;;;;;;;7.37;6.67;;;18.70;99.90;;;;;;5077379;28;20518;-68
2023/08/06 11:35:52;;;;;;;6.37;5.87;;;18.50;99.90;;;;;;5074409;28;20538;-69
2023/08/06 11:38:18;;;;;;;7.17;6.43;;;18.40;99.90;;;;;;5073981;28;20431;-68
2023/08/06 11:40:53;;;;;;;6.37;5.87;;;18.40;99.90;;;;;;5079177;28;20523;-68
2023/08/06 11:43:20;;;;;;;6.23;5.70;;;18.40;99.90;;;;;;5082244;28;20187;-68
2023/08/06 11:45:46;;;;;;;5.67;5.17;;;18.40;99.90;;;;;;5084964;28;20437;-68
2023/08/06 11:48:12;;;;;;;6.90;5.77;;;18.50;99.90;;;;;;5077174;28;21184;-68
2023/08/06 11:50:38;;;;;;;6.20;5.60;;;18.50;99.90;;;;;;5071877;28;20434;-69
2023/08/06 11:53:04;;;;;;;6.40;5.63;;;18.60;99.90;;;;;;5082239;28;20192;-69
2023/08/06 11:55:31;;;;;;;7.33;6.60;;;18.60;99.90;;;;;;5084746;28;20422;-68
2023/08/06 11:57:57;;;;;;;6.33;5.83;;;18.50;99.90;;;;;;5076183;28;20473;-69
2023/08/06 12:00:25;;;;;;;7.80;6.67;;;18.50;99.90;;;;;;5057269;28;20513;-68
2023/08/06 12:02:52;;;;;;;7.30;6.70;;;18.50;99.90;;;;;;5076980;28;20423;-68
2023/08/06 12:05:25;;;;;;;8.83;7.30;;;18.50;99.90;;;;;;5083586;28;21264;-69
2023/08/06 12:07:56;;;;;;;7.73;7.03;;;18.60;99.90;;;;;;5084753;28;20449;-68
2023/08/06 12:10:24;;;;;;;8.03;7.33;;;18.50;99.90;;;;;;5064451;28;20416;-68
2023/08/06 12:12:50;;;;;;;8.37;7.77;;;18.40;99.90;;;;;;5060020;28;20781;-69
2023/08/06 12:15:16;;;;;;;8.20;7.53;;;18.30;99.90;;;;;;5077251;28;20418;-69
2023/08/06 12:17:42;;;;;;;7.83;7.03;;;18.30;99.90;;;;;;5084899;28;20183;-69
2023/08/06 12:20:08;;;;;;;6.73;6.23;;;18.30;99.90;;;;;;5047187;28;20832;-68
2023/08/06 12:22:35;;;;;;;6.17;5.73;;;18.20;99.90;;;;;;5070261;28;20427;-69
2023/08/06 12:25:08;;;;;;;6.20;5.60;;;18.20;99.90;;;;;;5078880;28;20483;-68
2023/08/06 12:27:38;;;;;;;6.00;5.60;;;18.10;99.90;;;;;;5084765;28;20784;-69
2023/08/06 12:30:05;;;;;;;5.80;5.40;;;18.00;99.90;;;;;;5076437;28;20419;-69
2023/08/06 12:32:30;;;;;;;5.30;4.90;;;17.90;99.90;;;;;;5084541;28;20430;-69
2023/08/06 12:34:56;;;;;;;5.33;4.93;;;17.80;99.90;;;;;;5077833;28;20997;-68
2023/08/06 12:37:23;;;;;;;4.93;4.53;;;17.70;99.90;;;;;;5073279;28;20418;-69
2023/08/06 12:39:48;;;;;;;5.20;4.70;;;17.60;99.90;;;;;;5056132;28;20921;-69
2023/08/06 12:42:14;;;;;;;5.20;4.60;;;17.50;99.90;;;;;;5080809;28;20441;-68
2023/08/06 12:44:40;;;;;;;4.90;4.50;;;17.50;99.90;;;;;;5080857;28;20214;-69
2023/08/06 12:47:07;;;;;;;2.80;2.50;;;17.50;99.90;;;;;;5071165;28;21079;-68